Strona główna
METAR-TAF:

METAR-TAF

Lotnisko :

Cranwell, Anglia

Szerokość geograficzna: 53-02N, Długość geograficzna: 000-30W, wysokość: 67 m

Aktualna obserwacja pogody

Raport powstał 58 minut temu, godzina 03:50 UTC
Wiatr 4 kt od zachodnio-północny zachód
Temperatura 9°C
Wilgotność 87%
Ciśnienie 1022 hPa
Widzialność 10 km lub więcej

METAR: EGYD 150350Z AUTO 29004KT 9999 // NCD 09/07 Q1022

czas: 05:48 (04:48 UTC)

Prognoza

Raport powstał 15 godziny i 15 minut temu, godzina 13:33 UTC
Prognoza ważna od 14 godzina 15 UTC do 14 godzina 18 UTC
Wiatr 13 kt od zachodnio-północny zachód
Widzialność 10 km lub więcej
Rozproszone chmury na wysokości 3000 ft

TAF: EGYD 141333Z 1415/1418 30013KT 9999 SCT030

Obserwacja i prognoza pogody dla ponad 4000 lotnisk (raport METAR i TAF).

Dostępne stacje oznaczono żółtymi i czerwonymi punktami na mapie.

Najedź kursorem aby zobaczyć nazwę stacji.

Kliknij aby zobaczyć obserwacje i prognozy pogody.

Aby zmienić mapę: kliknij na zielony przycisk z czarnym krzyżykiem, aby powiększyć; na zielony przycisk z myślnikiem, aby pomniejszyć; na zielone strzałki, aby przejść do map sąsiednich.


METAR-TAF: